Map

Track Data

SID SEASON NUMBER BASIN SUBBASIN NAME ISO_TIME NATURE LAT LON WMO_WIND WMO_PRES WMO_AGENCY TRACK_TYPE DIST2LAND LANDFALL IFLAG USA_AGENCY USA_ATCF_ID USA_LAT USA_LON USA_RECORD USA_STATUS USA_WIND USA_PRES USA_SSHS USA_R34_NE USA_R34_SE USA_R34_SW USA_R34_NW USA_R50_NE USA_R50_SE USA_R50_SW USA_R50_NW USA_R64_NE USA_R64_SE USA_R64_SW USA_R64_NW USA_POCI USA_ROCI USA_RMW USA_EYE TOKYO_LAT TOKYO_LON TOKYO_GRADE TOKYO_WIND TOKYO_PRES TOKYO_R50_DIR TOKYO_R50_LONG TOKYO_R50_SHORT TOKYO_R30_DIR TOKYO_R30_LONG TOKYO_R30_SHORT TOKYO_LAND CMA_LAT CMA_LON CMA_CAT CMA_WIND CMA_PRES HKO_LAT HKO_LON HKO_CAT HKO_WIND HKO_PRES NEWDELHI_LAT NEWDELHI_LON NEWDELHI_GRADE NEWDELHI_WIND NEWDELHI_PRES NEWDELHI_CI NEWDELHI_DP NEWDELHI_POCI REUNION_LAT REUNION_LON REUNION_TYPE REUNION_WIND REUNION_PRES REUNION_TNUM REUNION_CI REUNION_RMW REUNION_R34_NE REUNION_R34_SE REUNION_R34_SW REUNION_R34_NW REUNION_R50_NE REUNION_R50_SE REUNION_R50_SW REUNION_R50_NW REUNION_R64_NE REUNION_R64_SE REUNION_R64_SW REUNION_R64_NW BOM_LAT BOM_LON BOM_TYPE BOM_WIND BOM_PRES BOM_TNUM BOM_CI BOM_RMW BOM_R34_NE BOM_R34_SE BOM_R34_SW BOM_R34_NW BOM_R50_NE BOM_R50_SE BOM_R50_SW BOM_R50_NW BOM_R64_NE BOM_R64_SE BOM_R64_SW BOM_R64_NW BOM_ROCI BOM_POCI BOM_EYE BOM_POS_METHOD BOM_PRES_METHOD NADI_LAT NADI_LON NADI_CAT NADI_WIND NADI_PRES WELLINGTON_LAT WELLINGTON_LON WELLINGTON_WIND WELLINGTON_PRES DS824_LAT DS824_LON DS824_STAGE DS824_WIND DS824_PRES TD9636_LAT TD9636_LON TD9636_STAGE TD9636_WIND TD9636_PRES TD9635_LAT TD9635_LON TD9635_WIND TD9635_PRES TD9635_ROCI NEUMANN_LAT NEUMANN_LON NEUMANN_CLASS NEUMANN_WIND NEUMANN_PRES MLC_LAT MLC_LON MLC_CLASS MLC_WIND MLC_PRES USA_GUST BOM_GUST BOM_GUST_PER REUNION_GUST REUNION_GUST_PER USA_SEAHGT USA_SEARAD_NE USA_SEARAD_SE USA_SEARAD_SW USA_SEARAD_NW STORM_SPEED STORM_DIR
1976155N11265 1976 59 EP MM ANNETTE 1976-06-03 00:00:00 TS 11.4000 -95.0400 25 hurdat_epa main 461 459 O________OO___ hurdat_epa EP011976 11.4000 -95.0000 TD 25 -1 11.4000 -95.0000 TC 25 11.4000 -95.2000 1 25 6 317
1976155N11265 1976 59 EP MM ANNETTE 1976-06-03 03:00:00 TS 11.6228 -95.2513 main 467 444 P________PP___ EP011976 11.5375 -95.1125 TD 25 -1 11.5375 -95.1125 TC 25 11.9639 -95.8066 1 25 6 320
1976155N11265 1976 59 EP MM ANNETTE 1976-06-03 06:00:00 TS 11.8523 -95.4304 25 hurdat_epa main 434 409 O________OP___ hurdat_epa EP011976 11.7000 -95.2000 TD 25 -1 11.7000 -95.2000 TC 25 12.4616 -96.3521 1 25 6 327
1976155N11265 1976 59 EP MM ANNETTE 1976-06-03 09:00:00 TS 12.0857 -95.5544 main 406 384 P________PP___ EP011976 11.9000 -95.2500 TD 25 -1 11.9000 -95.2500 TC 25 12.8284 -96.7717 1 25 5 334
1976155N11265 1976 59 EP MM ANNETTE 1976-06-03 12:00:00 TS 12.2800 -95.6400 25 hurdat_epa main 384 371 O________OO___ hurdat_epa EP011976 12.1000 -95.3000 TD 25 -1 12.1000 -95.3000 TC 25 13.0000 -97.0000 1 25 4 332
1976155N11265 1976 59 EP MM ANNETTE 1976-06-03 15:00:00 TS 12.3949 -95.7200 main 371 357 P________PP___ EP011976 12.2575 -95.4000 TD 25 -1 12.2575 -95.4000 TC 25 12.9444 -97.0002 1 25 2 327
1976155N11265 1976 59 EP MM ANNETTE 1976-06-03 18:00:00 TS 12.4715 -95.7696 25 hurdat_epa main 357 346 O________OP___ hurdat_epa EP011976 12.4000 -95.5000 TD 25 -1 12.4000 -95.5000 TC 25 12.7573 -96.8479 1 25 2 340
1976155N11265 1976 59 EP MM ANNETTE 1976-06-03 21:00:00 TS 12.5653 -95.7814 main 346 335 P________PP___ EP011976 12.5650 -95.5650 TD 25 -1 12.5650 -95.5650 TC 25 12.5665 -96.6468 1 25 2 354
1976155N11265 1976 59 EP MM ANNETTE 1976-06-04 00:00:00 TS 12.6600 -95.7800 25 hurdat_epa main 335 325 O________OO___ hurdat_epa EP011976 12.7000 -95.6000 TD 25 -1 12.7000 -95.6000 TC 25 12.5000 -96.5000 1 25 2 348
1976155N11265 1976 59 EP MM ANNETTE 1976-06-04 03:00:00 TS 12.7805 -95.8168 main 325 311 P________PP___ EP011976 12.7725 -95.6075 TD 25 -1 12.7725 -95.6075 TC 25 12.8124 -96.6539 1 2 343
1976155N11265 1976 59 EP MM ANNETTE 1976-06-04 06:00:00 TS 12.8899 -95.8523 25 hurdat_epa main 311 300 O________OP___ hurdat_epa EP011976 12.8000 -95.6000 TD 25 -1 12.8000 -95.6000 TC 25 13.2497 -96.8615 1 2 342
1976155N11265 1976 59 EP MM ANNETTE 1976-06-04 09:00:00 TS 12.9834 -95.8827 main 300 300 P________PP___ EP011976 12.8075 -95.6000 TD 25 -1 12.8075 -95.6000 TC 25 13.6871 -97.0135 1 2 0
1976155N11265 1976 59 EP MM ANNETTE 1976-06-04 12:00:00 TS 13.0400 -95.8800 25 hurdat_epa main 300 289 O________OO___ hurdat_epa EP011976 12.8000 -95.6000 TD 25 -1 12.8000 -95.6000 TC 25 14.0000 -97.0000 6 1 51
1976155N11265 1976 59 EP MM ANNETTE 1976-06-04 15:00:00 TS 13.0582 -95.7955 main 292 292 P________PP___ EP011976 12.8075 -95.6000 TD 25 -1 12.8075 -95.6000 TC 25 14.0609 -96.5777 6 2 91
1976155N11265 1976 59 EP MM ANNETTE 1976-06-04 18:00:00 TS 13.0354 -95.6798 25 hurdat_epa main 306 306 O________OP___ hurdat_epa EP011976 12.8000 -95.6000 TD 25 -1 12.8000 -95.6000 TC 25 13.9772 -95.9989 6 2 113
1976155N11265 1976 59 EP MM ANNETTE 1976-06-04 21:00:00 TS 12.9619 -95.5642 main 309 309 P________PP___ EP011976 12.7575 -95.6000 TD 25 -1 12.7575 -95.6000 TC 25 13.7796 -95.4208 6 3 132
1976155N11265 1976 59 EP MM ANNETTE 1976-06-05 00:00:00 TS 12.8600 -95.4800 25 hurdat_epa main 322 322 O________OO___ hurdat_epa EP011976 12.7000 -95.6000 TD 25 -1 12.7000 -95.6000 TC 25 13.5000 -95.0000 1 25 2 157
1976155N11265 1976 59 EP MM ANNETTE 1976-06-05 03:00:00 TS 12.7531 -95.4693 main 333 333 P________PP___ EP011976 12.6575 -95.6000 TD 25 -1 12.6575 -95.6000 TC 25 13.1355 -94.9463 1 26 2 0
1976155N11265 1976 59 EP MM ANNETTE 1976-06-05 06:00:00 TS 12.6224 -95.4928 25 hurdat_epa main 355 355 O________OP___ hurdat_epa EP011976 12.6000 -95.6000 TD 25 -1 12.6000 -95.6000 TC 25 12.7121 -95.0639 1 27 3 191
1976155N11265 1976 59 EP MM ANNETTE 1976-06-05 09:00:00 TS 12.4675 -95.5289 main 366 366 P________PP___ EP011976 12.5075 -95.5925 TD 25 -1 12.5075 -95.5925 TC 25 12.3076 -95.2744 1 28 3 196
1976155N11265 1976 59 EP MM ANNETTE 1976-06-05 12:00:00 TS 12.3200 -95.5800 25 hurdat_epa main 384 384 O________OO___ hurdat_epa EP011976 12.4000 -95.6000 TD 25 -1 12.4000 -95.6000 TC 25 12.0000 -95.5000 1 30 3 201
1976155N11265 1976 59 EP MM ANNETTE 1976-06-05 15:00:00 TS 12.2282 -95.6228 main 395 392 P________PP___ EP011976 12.3000 -95.6275 TD 27 -1 12.3000 -95.6275 TC 27 11.9408 -95.6042 1 30 2 215
1976155N11265 1976 59 EP MM ANNETTE 1976-06-05 18:00:00 TS 12.1555 -95.7024 30 hurdat_epa main 392 392 O________OP___ hurdat_epa EP011976 12.2000 -95.7000 TD 30 -1 12.2000 -95.7000 TC 30 11.9773 -95.7118 1 30 2 233
1976155N11265 1976 59 EP MM ANNETTE 1976-06-05 21:00:00 TS 12.0790 -95.8237 main 401 399 P________PP___ EP011976 12.0925 -95.8200 TD 30 -1 12.0925 -95.8200 TC 30 12.0252 -95.8385 1 30 3 242
1976155N11265 1976 59 EP MM ANNETTE 1976-06-06 00:00:00 TS 12.0000 -96.0000 30 hurdat_epa main 408 406 O________OO___ hurdat_epa EP011976 12.0000 -96.0000 TD 30 -1 12.0000 -96.0000 TC 30 12.0000 -96.0000 1 30 4 245
1976155N11265 1976 59 EP MM ANNETTE 1976-06-06 03:00:00 TS 11.8974 -96.2269 main 416 415 P________PP___ EP011976 11.9425 -96.2350 TD 35 0 11.9425 -96.2350 TC 35 11.7171 -96.1944 1 33 5 246
1976155N11265 1976 59 EP MM ANNETTE 1976-06-06 06:00:00 TS 11.7925 -96.4852 40 hurdat_epa main 425 425 O________OP___ hurdat_epa EP011976 11.9000 -96.5000 TS 40 0 11.9000 -96.5000 TC 40 11.3624 -96.4260 1 37 5 248
1976155N11265 1976 59 EP MM ANNETTE 1976-06-06 09:00:00 TS 11.6913 -96.7389 main 436 436 P________PP___ EP011976 11.8575 -96.7500 TS 42 0 11.8575 -96.7500 TC 42 11.0264 -96.6945 1 41 5 249
1976155N11265 1976 59 EP MM ANNETTE 1976-06-06 12:00:00 TS 11.6000 -97.0000 45 hurdat_epa main 449 449 O________OO___ hurdat_epa EP011976 11.8000 -97.0000 TS 45 0 11.8000 -97.0000 TC 45 10.8000 -97.0000 2 45 6 252
1976155N11265 1976 59 EP MM ANNETTE 1976-06-06 15:00:00 TS 11.5214 -97.2815 main 465 465 P________PP___ EP011976 11.7000 -97.2500 TS 45 0 11.7000 -97.2500 TC 45 10.8073 -97.4073 2 47 6 256
1976155N11265 1976 59 EP MM ANNETTE 1976-06-06 18:00:00 TS 11.4661 -97.5678 45 1008 hurdat_epa main 471 471 O________OP___ hurdat_epa EP011976 11.6000 -97.5000 TS 45 1008 0 11.6000 -97.5000 TC 45 1008 10.9306 -97.8389 2 50 6 261
1976155N11265 1976 59 EP MM ANNETTE 1976-06-06 21:00:00 TS 11.4387 -97.8453 main 487 483 P________PP___ EP011976 11.5200 -97.7500 TS 50 0 11.5200 -97.7500 TC 50 11.1135 -98.2261 2 52 5 269
1976155N11265 1976 59 EP MM ANNETTE 1976-06-07 00:00:00 TS 11.4600 -98.1000 55 hurdat_epa main 486 486 O________OO___ hurdat_epa EP011976 11.5000 -98.0000 TS 55 0 11.5000 -98.0000 TC 55 11.3000 -98.5000 2 55 5 281
1976155N11265 1976 59 EP MM ANNETTE 1976-06-07 03:00:00 TS 11.5257 -98.2991 main 494 488 P________PP___ EP011976 11.5625 -98.2500 TS 60 0 11.5625 -98.2500 TC 60 11.3783 -98.4956 2 57 4 297
1976155N11265 1976 59 EP MM ANNETTE 1976-06-07 06:00:00 TS 11.6509 -98.4772 65 hurdat_epa main 482 477 O________OP___ hurdat_epa EP011976 11.7000 -98.5000 HU 65 1 11.7000 -98.5000 TC 65 11.4544 -98.3859 2 60 5 311
1976155N11265 1976 59 EP MM ANNETTE 1976-06-07 09:00:00 TS 11.8246 -98.6566 main 480 460 P________PP___ EP011976 11.8925 -98.7500 HU 65 1 11.8925 -98.7500 TC 65 11.5533 -98.2833 2 62 5 315
1976155N11265 1976 59 EP MM ANNETTE 1976-06-07 12:00:00 TS 12.0200 -98.8600 65 hurdat_epa main 463 447 O________OO___ hurdat_epa EP011976 12.1000 -99.0000 HU 65 1 12.1000 -99.0000 TC 65 11.7000 -98.3000 4 65 6 309
1976155N11265 1976 59 EP MM ANNETTE 1976-06-07 15:00:00 TS 12.1883 -99.1192 main 447 438 P________PP___ EP011976 12.2500 -99.2501 HU 70 1 12.2500 -99.2501 TC 70 11.9414 -98.5959 4 71 6 303
1976155N11265 1976 59 EP MM ANNETTE 1976-06-07 18:00:00 TS 12.3656 -99.4043 75 hurdat_epa main 438 430 O________OP___ hurdat_epa EP011976 12.4000 -99.5000 HU 75 1 12.4000 -99.5000 TC 75 12.2282 -99.0216 4 77 7 305
1976155N11265 1976 59 EP MM ANNETTE 1976-06-07 21:00:00 TS 12.5851 -99.6903 main 430 416 P________PP___ EP011976 12.5999 -99.7350 HU 82 1 12.5999 -99.7350 TC 82 12.5258 -99.5116 4 83 7 307
1976155N11265 1976 59 EP MM ANNETTE 1976-06-08 00:00:00 TS 12.8000 -100.000 90 hurdat_epa main 419 412 O________OO___ hurdat_epa EP011976 12.8000 -100.000 HU 90 2 12.8000 -100.000 TC 90 12.8000 -100.000 4 90 7 301
1976155N11265 1976 59 EP MM ANNETTE 1976-06-08 03:00:00 TS 12.9615 -100.341 main 412 412 P________PP___ EP011976 12.9500 -100.328 HU 90 2 12.9500 -100.328 TC 90 13.0076 -100.394 4 91 8 295
1976155N11265 1976 59 EP MM ANNETTE 1976-06-08 06:00:00 TS 13.1174 -100.715 90 hurdat_epa main 417 405 O________OP___ hurdat_epa EP011976 13.1000 -100.700 HU 90 2 13.1000 -100.700 TC 90 13.1872 -100.773 4 92 8 295
1976155N11265 1976 59 EP MM ANNETTE 1976-06-08 09:00:00 TS 13.3096 -101.108 main 409 402 P________PP___ EP011976 13.3000 -101.100 HU 92 2 13.3000 -101.100 TC 92 13.3482 -101.141 4 93 9 297
1976155N11265 1976 59 EP MM ANNETTE 1976-06-08 12:00:00 TS 13.5000 -101.500 95 hurdat_epa main 407 402 O________OO___ hurdat_epa EP011976 13.5000 -101.500 HU 95 2 13.5000 -101.500 TC 95 13.5000 -101.500 4 95 8 296
1976155N11265 1976 59 EP MM ANNETTE 1976-06-08 15:00:00 TS 13.6573 -101.856 main 409 405 P________PP___ EP011976 13.6574 -101.858 HU 97 3 13.6574 -101.858 TC 97 13.6569 -101.849 4 100 7 294
1976155N11265 1976 59 EP MM ANNETTE 1976-06-08 18:00:00 TS 13.8014 -102.199 100 hurdat_epa main 409 401 O________OP___ hurdat_epa EP011976 13.8000 -102.200 HU 100 3 13.8000 -102.200 TC 100 13.8071 -102.193 4 105 7 294
1976155N11265 1976 59 EP MM ANNETTE 1976-06-08 21:00:00 TS 13.9507 -102.542 main 398 398 P________PP___ EP011976 13.9499 -102.543 HU 107 3 13.9499 -102.543 TC 107 13.9538 -102.540 4 110 7 294
1976155N11265 1976 59 EP MM ANNETTE 1976-06-09 00:00:00 TS 14.1000 -102.900 115 hurdat_epa main 406 402 O________OO___ hurdat_epa EP011976 14.1000 -102.900 HU 115 4 14.1000 -102.900 TC 115 14.1000 -102.900 4 115 8 292
1976155N11265 1976 59 EP MM ANNETTE 1976-06-09 03:00:00 TS 14.2508 -103.291 main 410 410 P________PP___ EP011976 14.2500 -103.293 HU 115 4 14.2500 -103.293 TC 115 14.2540 -103.286 4 115 8 291
1976155N11265 1976 59 EP MM ANNETTE 1976-06-09 06:00:00 TS 14.4015 -103.697 115 hurdat_epa main 419 412 O________OP___ hurdat_epa EP011976 14.4000 -103.700 HU 115 4 14.4000 -103.700 TC 115 14.4074 -103.685 4 115 8 291
1976155N11265 1976 59 EP MM ANNETTE 1976-06-09 09:00:00 TS 14.5514 -104.098 main 412 412 P________PP___ EP011976 14.5499 -104.100 HU 115 4 14.5499 -104.100 TC 115 14.5571 -104.092 4 115 8 291
1976155N11265 1976 59 EP MM ANNETTE 1976-06-09 12:00:00 TS 14.7000 -104.500 115 hurdat_epa main 415 408 O________OO___ hurdat_epa EP011976 14.7000 -104.500 HU 115 4 14.7000 -104.500 TC 115 14.7000 -104.500 4 115 8 291
1976155N11265 1976 59 EP MM ANNETTE 1976-06-09 15:00:00 TS 14.8498 -104.895 main 419 408 P________PP___ EP011976 14.8574 -104.900 HU 102 3 14.8574 -104.900 TC 102 14.8195 -104.876 4 116 8 291
1976155N11265 1976 59 EP MM ANNETTE 1976-06-09 18:00:00 TS 14.9868 -105.291 90 925 hurdat_epa main 416 416 O________OP___ hurdat_epa EP011976 15.0000 -105.300 HU 90 925 2 15.0000 -105.300 TC 90 925 14.9342 -105.256 4 117 8 287
1976155N11265 1976 59 EP MM ANNETTE 1976-06-09 21:00:00 TS 15.0852 -105.680 main 427 427 P________PP___ EP011976 15.0923 -105.685 HU 105 3 15.0923 -105.685 TC 105 15.0569 -105.658 4 118 8 285
1976155N11265 1976 59 EP MM ANNETTE 1976-06-10 00:00:00 TS 15.2000 -106.100 120 hurdat_epa main 443 443 O________OO___ hurdat_epa EP011976 15.2000 -106.100 HU 120 4 15.2000 -106.100 TC 120 15.2000 -106.100 4 120 9 289
1976155N11265 1976 59 EP MM ANNETTE 1976-06-10 03:00:00 TS 15.3885 -106.579 main 462 460 P________PP___ EP011976 15.3849 -106.570 HU 120 4 15.3849 -106.570 TC 120 15.4030 -106.614 4 120 11 292
1976155N11265 1976 59 EP MM ANNETTE 1976-06-10 06:00:00 TS 15.6046 -107.114 120 hurdat_epa main 470 467 O________OP___ hurdat_epa EP011976 15.6000 -107.100 HU 120 4 15.6000 -107.100 TC 120 15.6228 -107.169 4 120 12 292
1976155N11265 1976 59 EP MM ANNETTE 1976-06-10 09:00:00 TS 15.8243 -107.708 main 489 487 P________PP___ EP011976 15.8226 -107.700 HU 120 4 15.8226 -107.700 TC 120 15.8311 -107.739 4 120 12 289
1976155N11265 1976 59 EP MM ANNETTE 1976-06-10 12:00:00 TS 16.0000 -108.300 120 hurdat_epa main 515 515 O________OO___ hurdat_epa EP011976 16.0000 -108.300 HU 120 4 16.0000 -108.300 TC 120 16.0000 -108.300 4 120 11 283
1976155N11265 1976 59 EP MM ANNETTE 1976-06-10 15:00:00 TS 16.0716 -108.824 main 546 546 P________PP___ EP011976 16.0723 -108.815 HU 117 4 16.0723 -108.815 TC 117 16.0688 -108.860 4 118 10 276
1976155N11265 1976 59 EP MM ANNETTE 1976-06-10 18:00:00 TS 16.1000 -109.320 115 hurdat_epa main 584 584 O________OP___ hurdat_epa EP011976 16.1000 -109.300 HU 115 4 16.1000 -109.300 TC 115 16.1002 -109.399 4 117 10 274
1976155N11265 1976 59 EP MM ANNETTE 1976-06-10 21:00:00 TS 16.1403 -109.830 main 623 623 P________PP___ EP011976 16.1425 -109.815 HU 115 4 16.1425 -109.815 TC 115 16.1315 -109.888 4 116 9 276
1976155N11265 1976 59 EP MM ANNETTE 1976-06-11 00:00:00 TS 16.2000 -110.300 115 hurdat_epa main 658 658 O________OO___ hurdat_epa EP011976 16.2000 -110.300 HU 115 4 16.2000 -110.300 TC 115 16.2000 -110.300 4 115 8 281
1976155N11265 1976 59 EP MM ANNETTE 1976-06-11 03:00:00 TS 16.3015 -110.694 main 686 686 P________PP___ EP011976 16.2848 -110.715 HU 115 4 16.2848 -110.715 TC 115 16.3684 -110.608 4 111 8 288
1976155N11265 1976 59 EP MM ANNETTE 1976-06-11 06:00:00 TS 16.4353 -111.048 115 hurdat_epa main 706 706 O________OP___ hurdat_epa EP011976 16.4000 -111.100 HU 115 4 16.4000 -111.100 TC 115 16.5767 -110.840 4 107 7 293
1976155N11265 1976 59 EP MM ANNETTE 1976-06-11 09:00:00 TS 16.5873 -111.405 main 719 710 P________PP___ EP011976 16.5349 -111.500 HU 107 3 16.5349 -111.500 TC 107 16.7967 -111.027 4 103 8 295
1976155N11265 1976 59 EP MM ANNETTE 1976-06-11 12:00:00 TS 16.7600 -111.760 100 hurdat_epa main 707 702 O________OO___ hurdat_epa EP011976 16.7000 -111.900 HU 100 3 16.7000 -111.900 TC 100 17.0000 -111.200 4 100 8 297
1976155N11265 1976 59 EP MM ANNETTE 1976-06-11 15:00:00 TS 16.9510 -112.144 main 695 691 P________PP___ EP011976 16.9001 -112.330 HU 95 2 16.9001 -112.330 TC 95 17.1545 -111.399 4 97 8 299
1976155N11265 1976 59 EP MM ANNETTE 1976-06-11 18:00:00 TS 17.1375 -112.479 90 hurdat_epa main 699 686 O________OP___ hurdat_epa EP011976 17.1000 -112.700 HU 90 2 17.1000 -112.700 TC 90 17.2873 -111.593 4 95 7 302
1976155N11265 1976 59 EP MM ANNETTE 1976-06-11 21:00:00 TS 17.2922 -112.726 main 686 680 P________PP___ EP011976 17.2649 -112.960 HU 90 2 17.2649 -112.960 TC 90 17.4014 -111.790 4 92 5 306
1976155N11265 1976 59 EP MM ANNETTE 1976-06-12 00:00:00 TS 17.4200 -112.880 90 hurdat_epa main 685 675 O________OO___ hurdat_epa EP011976 17.4000 -113.100 HU 90 2 17.4000 -113.100 TC 90 17.5000 -112.000 4 90 3 315
1976155N11265 1976 59 EP MM ANNETTE 1976-06-12 03:00:00 TS 17.5215 -112.969 main 680 670 P________PP___ EP011976 17.5075 -113.138 HU 85 2 17.5075 -113.138 TC 85 17.5775 -112.297 4 82 2 329
1976155N11265 1976 59 EP MM ANNETTE 1976-06-12 06:00:00 TS 17.6086 -112.999 80 hurdat_epa main 670 660 O________OP___ hurdat_epa EP011976 17.6000 -113.100 HU 80 1 17.6000 -113.100 TC 80 17.6429 -112.597 4 75 2 350
1976155N11265 1976 59 EP MM ANNETTE 1976-06-12 09:00:00 TS 17.7084 -113.016 main 660 650 P________PP___ EP011976 17.7075 -113.058 HU 70 1 17.7075 -113.058 TC 70 17.7118 -112.850 4 67 2 0
1976155N11265 1976 59 EP MM ANNETTE 1976-06-12 12:00:00 TS 17.8000 -113.000 60 hurdat_epa main 650 640 O________OO___ hurdat_epa EP011976 17.8000 -113.000 TS 60 0 17.8000 -113.000 TC 60 17.8000 -113.000 2 60 2 21
1976155N11265 1976 59 EP MM ANNETTE 1976-06-12 15:00:00 TS 17.8733 -112.949 main 635 635 P________PP___ EP011976 17.8575 -112.950 TS 55 0 17.8575 -112.950 TC 55 17.9365 -112.947 2 57 2 38
1976155N11265 1976 59 EP MM ANNETTE 1976-06-12 18:00:00 TS 17.9385 -112.879 50 hurdat_epa main 635 620 O________OP___ hurdat_epa EP011976 17.9000 -112.900 TS 50 0 17.9000 -112.900 TC 50 18.0926 -112.796 2 55 2 47
1976155N11265 1976 59 EP MM ANNETTE 1976-06-12 21:00:00 TS 18.0045 -112.798 main 620 605 P________PP___ EP011976 17.9425 -112.843 TS 55 0 17.9425 -112.843 TC 55 18.2523 -112.622 2 52 2 43
1976155N11265 1976 59 EP MM ANNETTE 1976-06-13 00:00:00 TS 18.0800 -112.740 60 hurdat_epa main 605 596 O________OO___ hurdat_epa EP011976 18.0000 -112.800 TS 60 0 18.0000 -112.800 TC 60 18.4000 -112.500 2 50 2 22
1976155N11265 1976 59 EP MM ANNETTE 1976-06-13 03:00:00 TS 18.1684 -112.725 main 596 586 P________PP___ EP011976 18.0850 -112.778 TS 52 0 18.0850 -112.778 TC 52 18.5021 -112.515 2 48 2 0
1976155N11265 1976 59 EP MM ANNETTE 1976-06-13 06:00:00 TS 18.2785 -112.759 45 hurdat_epa main 591 581 O________OP___ hurdat_epa EP011976 18.2000 -112.800 TS 45 0 18.2000 -112.800 TC 45 18.5923 -112.595 2 47 3 334
1976155N11265 1976 59 EP MM ANNETTE 1976-06-13 09:00:00 TS 18.3933 -112.842 main 581 577 P________PP___ EP011976 18.3200 -112.870 TS 45 0 18.3200 -112.870 TC 45 18.6864 -112.728 2 46 4 323
1976155N11265 1976 59 EP MM ANNETTE 1976-06-13 12:00:00 TS 18.5600 -112.980 45 hurdat_epa main 573 560 O________OO___ hurdat_epa EP011976 18.5000 -113.000 TS 45 0 18.5000 -113.000 TC 45 18.8000 -112.900 2 45 5 324
1976155N11265 1976 59 EP MM ANNETTE 1976-06-13 15:00:00 TS 18.7868 -113.144 main 560 552 P________PP___ EP011976 18.7474 -113.155 TS 35 0 18.7474 -113.155 TC 35 18.9446 -113.101 2 41 7 325
1976155N11265 1976 59 EP MM ANNETTE 1976-06-13 18:00:00 TS 19.1024 -113.388 25 hurdat_epa main 552 539 O________OP___ hurdat_epa EP011976 19.1000 -113.400 TD 25 -1 19.1000 -113.400 TC 25 19.1153 -113.322 2 37 10 323
1976155N11265 1976 59 EP MM ANNETTE 1976-06-13 21:00:00 TS 19.5538 -113.746 main 532 531 P________PP___ EP011976 19.5851 -113.770 TD 27 -1 19.5851 -113.770 TC 27 19.3034 -113.557 2 33 12 322
1976155N11265 1976 59 EP MM ANNETTE 1976-06-14 00:00:00 TS 20.0538 -114.169 30 hurdat_epa main 535 526 O________OO___ hurdat_epa EP011976 20.1000 -114.200 TD 30 -1 20.1000 -114.200 TC 30 19.5000 -113.800 1 30 13 320
1976155N11265 1976 59 EP MM ANNETTE 1976-06-14 03:00:00 TS 20.5301 -114.610 main 531 518 P________P____ EP011976 20.5301 -114.610 TD 22 -1 20.5301 -114.610 TC 22 1 12 317
1976155N11265 1976 59 EP MM ANNETTE 1976-06-14 06:00:00 ET 20.9000 -115.000 15 hurdat_epa main 518 O________O____ hurdat_epa EP011976 20.9000 -115.000 ET 15 -4 20.9000 -115.000 15 1 10 315

About IBTrACS Database

This database is a web-friendly format of International Best Track Archive for Climate Stewardship (IBTrACS), a global best track data archive curated by NOAA dating back to 1842.

Updated: 2021-11-26